createdAt,value
2018-04-24T00:01:41.273Z,14.20
2018-04-24T00:04:08.963Z,14.20
2018-04-24T00:06:36.490Z,14.20
2018-04-24T00:09:05.597Z,14.20
2018-04-24T00:11:33.920Z,14.10
2018-04-24T00:14:01.454Z,14.10
2018-04-24T00:16:29.762Z,14.00
2018-04-24T00:18:58.037Z,14.00
2018-04-24T00:21:26.345Z,14.00
2018-04-24T00:23:53.869Z,14.00
2018-04-24T00:26:21.396Z,14.00
2018-04-24T00:28:48.912Z,14.00
2018-04-24T00:31:16.447Z,13.90
2018-04-24T00:33:43.956Z,13.90
2018-04-24T00:36:11.465Z,13.80
2018-04-24T00:38:39.765Z,13.70
2018-04-24T00:41:07.281Z,13.70
2018-04-24T00:43:34.830Z,13.60
2018-04-24T00:46:02.350Z,13.50
2018-04-24T00:48:29.878Z,13.50
2018-04-24T00:50:57.395Z,13.50
2018-04-24T00:53:37.444Z,13.40
2018-04-24T00:56:04.958Z,13.40
2018-04-24T00:58:32.501Z,13.40
2018-04-24T01:01:00.788Z,13.40
2018-04-24T01:03:28.389Z,13.40
2018-04-24T01:05:55.855Z,13.40
2018-04-24T01:08:24.155Z,13.30
2018-04-24T01:10:51.690Z,13.30
2018-04-24T01:13:19.224Z,13.30
2018-04-24T01:15:46.741Z,13.20
2018-04-24T01:18:14.278Z,13.20
2018-04-24T01:20:41.788Z,13.20
2018-04-24T01:23:09.337Z,13.20
2018-04-24T01:25:36.842Z,13.10
2018-04-24T01:28:05.136Z,13.10
2018-04-24T01:30:33.409Z,13.10
2018-04-24T01:33:01.727Z,13.00
2018-04-24T01:35:29.248Z,13.00
2018-04-24T01:37:56.782Z,13.00
2018-04-24T01:40:24.285Z,12.90
2018-04-24T01:42:51.813Z,12.90
2018-04-24T01:45:19.318Z,12.80
2018-04-24T01:47:47.635Z,12.70
2018-04-24T01:50:15.148Z,12.70
2018-04-24T01:52:42.652Z,12.70
2018-04-24T01:55:10.193Z,12.70
2018-04-24T01:57:37.747Z,12.70
2018-04-24T02:00:06.057Z,12.70
2018-04-24T02:02:33.562Z,12.60
2018-04-24T02:05:01.094Z,12.70
2018-04-24T02:07:28.606Z,12.70
2018-04-24T02:09:56.141Z,12.70
2018-04-24T02:12:23.664Z,12.70
2018-04-24T02:14:51.205Z,12.70
2018-04-24T02:17:18.735Z,12.70
2018-04-24T02:19:47.064Z,12.70
2018-04-24T02:22:14.583Z,12.70
2018-04-24T02:24:42.117Z,12.80
2018-04-24T02:27:09.647Z,12.80
2018-04-24T02:29:37.195Z,12.80
2018-04-24T02:32:04.705Z,12.80
2018-04-24T02:34:32.229Z,12.80
2018-04-24T02:36:59.740Z,12.80
2018-04-24T02:39:27.319Z,12.80
2018-04-24T02:41:54.834Z,12.80
2018-04-24T02:44:22.362Z,12.70
2018-04-24T02:46:49.870Z,12.70
2018-04-24T02:49:17.401Z,12.60
2018-04-24T02:51:44.923Z,12.50
2018-04-24T02:54:12.445Z,12.40
2018-04-24T02:56:39.961Z,12.30
2018-04-24T02:59:07.500Z,12.20
2018-04-24T03:01:35.016Z,12.30
2018-04-24T03:04:02.553Z,12.20
2018-04-24T03:06:30.088Z,12.10
2018-04-24T03:08:57.624Z,12.10
2018-04-24T03:11:25.163Z,12.10
2018-04-24T03:13:52.672Z,12.10
2018-04-24T03:16:20.197Z,12.10
2018-04-24T03:18:47.716Z,12.10
2018-04-24T03:21:15.262Z,12.10
2018-04-24T03:23:42.785Z,12.00
2018-04-24T03:26:11.077Z,12.10
2018-04-24T03:28:39.368Z,12.00
2018-04-24T03:31:07.665Z,12.00
2018-04-24T03:33:35.168Z,12.00
2018-04-24T03:36:02.697Z,12.10
2018-04-24T03:38:30.970Z,11.90
2018-04-24T03:40:58.514Z,12.00
2018-04-24T03:43:26.781Z,12.00
2018-04-24T03:45:54.313Z,11.90
2018-04-24T03:48:22.603Z,11.80
2018-04-24T03:50:50.918Z,11.90
2018-04-24T03:53:18.432Z,11.90
2018-04-24T03:55:45.957Z,11.90
2018-04-24T03:58:13.474Z,11.90
2018-04-24T04:00:41.012Z,12.00
2018-04-24T04:03:08.536Z,12.00
2018-04-24T04:05:36.058Z,12.00
2018-04-24T04:08:03.592Z,12.00
2018-04-24T04:10:31.899Z,12.00
2018-04-24T04:12:59.419Z,11.90
2018-04-24T04:15:27.065Z,11.90
2018-04-24T04:18:06.309Z,12.00
2018-04-24T04:20:45.695Z,12.00
2018-04-24T04:23:25.614Z,12.00
2018-04-24T04:25:53.152Z,12.00
2018-04-24T04:28:21.445Z,12.10
2018-04-24T04:30:49.747Z,12.10
2018-04-24T04:33:18.154Z,12.10
2018-04-24T04:35:45.749Z,12.10
2018-04-24T04:38:13.300Z,12.10
2018-04-24T04:40:40.826Z,12.20
2018-04-24T04:43:08.368Z,12.20
2018-04-24T04:45:35.879Z,12.20
2018-04-24T04:48:03.412Z,12.30
2018-04-24T04:50:30.915Z,12.40
2018-04-24T04:52:58.452Z,12.60
2018-04-24T04:55:25.991Z,12.70
2018-04-24T04:57:53.525Z,12.80
2018-04-24T05:00:21.187Z,13.10
2018-04-24T05:02:48.751Z,13.20
2018-04-24T05:05:16.337Z,13.40
2018-04-24T05:07:43.836Z,13.50
2018-04-24T05:10:12.114Z,13.90
2018-04-24T05:12:39.643Z,13.90
2018-04-24T05:15:07.172Z,13.80
2018-04-24T05:17:35.470Z,13.90
2018-04-24T05:20:03.774Z,14.30
2018-04-24T05:22:31.316Z,14.30
2018-04-24T05:24:59.592Z,14.80
2018-04-24T05:27:27.116Z,14.80
2018-04-24T05:29:54.630Z,15.00
2018-04-24T05:32:22.157Z,15.20
2018-04-24T05:34:49.669Z,15.40
2018-04-24T05:37:17.209Z,15.30
2018-04-24T05:39:44.709Z,15.20
2018-04-24T05:42:12.228Z,15.20
2018-04-24T05:44:39.755Z,15.30
2018-04-24T05:47:07.288Z,15.50
2018-04-24T05:49:34.812Z,15.80
2018-04-24T05:52:02.357Z,15.80
2018-04-24T05:54:29.861Z,16.00
2018-04-24T05:56:58.168Z,16.20
2018-04-24T05:59:25.682Z,16.20
2018-04-24T06:01:53.218Z,16.40
2018-04-24T06:04:20.776Z,16.40
2018-04-24T06:06:49.049Z,16.60
2018-04-24T06:09:17.371Z,16.50
2018-04-24T06:11:44.877Z,16.50
2018-04-24T06:14:12.433Z,16.70
2018-04-24T06:16:39.958Z,16.60
2018-04-24T06:19:08.568Z,16.70
2018-04-24T06:21:36.855Z,16.90
2018-04-24T06:24:05.149Z,17.10
2018-04-24T06:26:32.666Z,17.10
2018-04-24T06:29:00.195Z,17.10
2018-04-24T06:31:28.487Z,17.00
2018-04-24T06:33:56.787Z,16.80
2018-04-24T06:36:24.317Z,16.80
2018-04-24T06:38:51.844Z,16.90
2018-04-24T06:41:19.367Z,17.10
2018-04-24T06:43:46.916Z,17.10
2018-04-24T06:46:14.425Z,17.30
2018-04-24T06:48:42.734Z,17.40
2018-04-24T06:51:10.254Z,17.40
2018-04-24T06:53:37.814Z,17.50
2018-04-24T06:56:05.336Z,17.60
2018-04-24T06:58:33.656Z,17.80
2018-04-24T07:01:01.188Z,17.80
2018-04-24T07:03:28.737Z,17.60
2018-04-24T07:05:56.243Z,17.80
2018-04-24T07:08:23.782Z,18.00
2018-04-24T07:10:51.285Z,18.30
2018-04-24T07:13:19.599Z,18.30
2018-04-24T07:15:47.113Z,18.30
2018-04-24T07:18:15.427Z,18.40
2018-04-24T07:20:43.733Z,18.50
2018-04-24T07:23:11.261Z,18.50
2018-04-24T07:25:38.803Z,18.60
2018-04-24T07:28:06.305Z,18.60
2018-04-24T07:30:33.838Z,18.60
2018-04-24T07:33:01.430Z,18.50
2018-04-24T07:35:29.672Z,18.80
2018-04-24T07:37:57.959Z,19.00
2018-04-24T07:40:26.253Z,19.00
2018-04-24T07:42:54.526Z,18.90
2018-04-24T07:45:22.888Z,18.80
2018-04-24T07:47:50.362Z,18.80
2018-04-24T07:50:17.915Z,19.00
2018-04-24T07:52:45.491Z,19.20
2018-04-24T07:55:13.043Z,19.20
2018-04-24T07:57:40.555Z,19.00
2018-04-24T08:00:08.151Z,18.70
2018-04-24T08:02:36.442Z,18.70
2018-04-24T08:05:03.987Z,18.70
2018-04-24T08:07:31.512Z,18.80
2018-04-24T08:09:59.049Z,18.80
2018-04-24T08:12:27.326Z,19.10
2018-04-24T08:14:54.873Z,19.10
2018-04-24T08:17:22.393Z,19.00
2018-04-24T08:19:50.698Z,18.60
2018-04-24T08:22:18.222Z,18.60
2018-04-24T08:24:45.766Z,18.80
2018-04-24T08:27:13.289Z,19.10
2018-04-24T08:29:41.578Z,19.40
2018-04-24T08:32:09.878Z,19.70
2018-04-24T08:34:38.150Z,19.70
2018-04-24T08:37:05.686Z,19.70
2018-04-24T08:39:33.203Z,19.90
2018-04-24T08:42:01.511Z,19.90
2018-04-24T08:44:29.038Z,19.80
2018-04-24T08:46:56.611Z,19.80
2018-04-24T08:49:24.921Z,19.20
2018-04-24T08:51:52.471Z,19.20
2018-04-24T08:54:19.997Z,19.10
2018-04-24T08:56:47.556Z,18.70
2018-04-24T08:59:15.082Z,18.90
2018-04-24T09:01:42.612Z,19.10
2018-04-24T09:04:10.117Z,19.30
2018-04-24T09:06:37.654Z,19.00
2018-04-24T09:09:06.940Z,19.00
2018-04-24T09:11:35.314Z,19.10
2018-04-24T09:14:02.947Z,19.10
2018-04-24T09:16:30.444Z,19.00
2018-04-24T09:18:57.978Z,18.70
2018-04-24T09:21:25.514Z,18.90
2018-04-24T09:23:53.030Z,19.00
2018-04-24T09:26:20.588Z,19.30
2018-04-24T09:28:48.104Z,19.10
2018-04-24T09:31:15.645Z,19.40
2018-04-24T09:33:43.238Z,19.50
2018-04-24T09:36:10.725Z,19.70
2018-04-24T09:38:38.350Z,19.60
2018-04-24T09:41:05.803Z,19.30
2018-04-24T09:43:34.104Z,19.50
2018-04-24T09:46:01.673Z,19.50
2018-04-24T09:48:29.987Z,20.40
2018-04-24T09:50:57.510Z,20.30
2018-04-24T09:53:25.828Z,20.70
2018-04-24T09:55:54.116Z,20.40
2018-04-24T09:58:21.659Z,20.40
2018-04-24T10:00:49.939Z,20.30
2018-04-24T10:03:18.342Z,19.90
2018-04-24T10:05:46.627Z,19.70
2018-04-24T10:08:14.186Z,19.70
2018-04-24T10:10:41.713Z,19.90
2018-04-24T10:13:09.299Z,20.20
2018-04-24T10:15:36.821Z,20.40
2018-04-24T10:18:05.133Z,20.40
2018-04-24T10:20:32.760Z,20.40
2018-04-24T10:23:01.823Z,20.20
2018-04-24T10:25:29.403Z,20.20
2018-04-24T10:27:56.979Z,19.90
2018-04-24T10:30:24.497Z,19.90
2018-04-24T10:32:52.053Z,19.80
2018-04-24T10:35:19.569Z,20.00
2018-04-24T10:37:47.868Z,19.90
2018-04-24T10:40:15.429Z,19.90
2018-04-24T10:42:42.959Z,20.20
2018-04-24T10:45:10.487Z,19.70
2018-04-24T10:47:39.152Z,20.00
2018-04-24T10:50:07.725Z,20.30
2018-04-24T10:52:35.251Z,20.30
2018-04-24T10:55:02.831Z,20.70
2018-04-24T10:57:31.130Z,20.40
2018-04-24T10:59:58.737Z,20.40
2018-04-24T11:02:26.283Z,20.60
2018-04-24T11:04:53.835Z,20.60
2018-04-24T11:07:21.364Z,20.80
2018-04-24T11:09:48.991Z,20.60
2018-04-24T11:12:16.510Z,20.70
2018-04-24T11:14:44.076Z,20.30
2018-04-24T11:17:12.401Z,20.40
2018-04-24T11:19:39.947Z,20.40
2018-04-24T11:22:07.472Z,20.60
2018-04-24T11:24:35.070Z,20.70
2018-04-24T11:27:02.639Z,20.90
2018-04-24T11:29:30.224Z,20.30
2018-04-24T11:31:57.754Z,20.30
2018-04-24T11:34:25.376Z,20.40
2018-04-24T11:36:52.853Z,20.50
2018-04-24T11:39:20.386Z,20.50
2018-04-24T11:41:47.902Z,20.80
2018-04-24T11:44:15.439Z,21.20
2018-04-24T11:46:42.983Z,21.30
2018-04-24T11:49:10.579Z,21.30
2018-04-24T11:51:38.121Z,21.20
2018-04-24T11:54:05.753Z,20.70
2018-04-24T11:56:33.350Z,20.70
2018-04-24T11:59:00.869Z,20.80
2018-04-24T12:01:28.404Z,20.50
2018-04-24T12:03:55.919Z,20.80
2018-04-24T12:06:23.549Z,20.70
2018-04-24T12:08:51.085Z,21.00
2018-04-24T12:11:18.647Z,21.20
2018-04-24T12:13:46.177Z,21.10
2018-04-24T12:16:13.721Z,21.40
2018-04-24T12:18:41.860Z,21.50
2018-04-24T12:21:09.418Z,21.40
2018-04-24T12:23:36.945Z,21.40
2018-04-24T12:26:04.507Z,21.60
2018-04-24T12:28:32.044Z,21.20
2018-04-24T12:30:59.613Z,21.20
2018-04-24T12:33:27.212Z,20.80
2018-04-24T12:35:54.761Z,21.10
2018-04-24T12:38:22.307Z,21.30
2018-04-24T12:40:49.858Z,21.10
2018-04-24T12:43:18.151Z,20.70
2018-04-24T12:45:46.538Z,20.50
2018-04-24T12:48:14.834Z,20.30
2018-04-24T12:50:43.169Z,20.50
2018-04-24T12:53:10.720Z,20.50
2018-04-24T12:55:38.285Z,20.50
2018-04-24T12:58:05.843Z,20.50
2018-04-24T13:00:33.395Z,20.80
2018-04-24T13:03:00.922Z,21.00
2018-04-24T13:05:28.458Z,21.30
2018-04-24T13:07:56.017Z,21.10
2018-04-24T13:10:23.597Z,21.30
2018-04-24T13:12:51.835Z,21.50
2018-04-24T13:15:19.346Z,21.10
2018-04-24T13:17:49.009Z,21.30
2018-04-24T13:20:16.556Z,21.30
2018-04-24T13:22:44.158Z,21.50
2018-04-24T13:25:11.678Z,21.80
2018-04-24T13:27:39.245Z,21.60
2018-04-24T13:30:06.788Z,21.30
2018-04-24T13:32:34.362Z,21.40
2018-04-24T13:35:01.928Z,21.30
2018-04-24T13:37:29.505Z,21.00
2018-04-24T13:39:57.460Z,21.20
2018-04-24T13:42:24.993Z,21.40
2018-04-24T13:44:52.546Z,21.40
2018-04-24T13:47:20.105Z,21.50
2018-04-24T13:49:47.659Z,21.50
2018-04-24T13:52:15.215Z,21.50
2018-04-24T13:54:42.770Z,21.10
2018-04-24T13:57:10.349Z,21.10
2018-04-24T13:59:37.900Z,21.20
2018-04-24T14:02:06.235Z,20.90
2018-04-24T14:04:33.795Z,20.90
2018-04-24T14:07:01.354Z,21.40
2018-04-24T14:09:28.918Z,21.70
2018-04-24T14:11:57.274Z,21.50
2018-04-24T14:14:24.859Z,21.50
2018-04-24T14:16:52.432Z,21.40
2018-04-24T14:19:19.989Z,21.50
2018-04-24T14:21:47.587Z,21.70
2018-04-24T14:24:15.125Z,21.70
2018-04-24T14:26:42.693Z,22.00
2018-04-24T14:29:10.278Z,22.00
2018-04-24T14:31:37.822Z,21.80
2018-04-24T14:34:05.386Z,21.60
2018-04-24T14:36:32.932Z,21.40
2018-04-24T14:39:01.291Z,21.70
2018-04-24T14:41:28.822Z,21.60
2018-04-24T14:43:56.382Z,21.80
2018-04-24T14:46:23.916Z,21.80
2018-04-24T14:48:51.467Z,21.30
2018-04-24T14:51:19.020Z,21.20
2018-04-24T14:53:46.586Z,21.30
2018-04-24T14:56:14.131Z,21.30
2018-04-24T14:58:42.470Z,21.60
2018-04-24T15:01:10.024Z,21.50
2018-04-24T15:03:38.905Z,21.80
2018-04-24T15:06:06.454Z,21.70
2018-04-24T15:08:34.772Z,21.60
2018-04-24T15:11:02.307Z,21.60
2018-04-24T15:13:29.887Z,21.50
2018-04-24T15:15:57.418Z,21.60
2018-04-24T15:18:24.986Z,21.60
2018-04-24T15:20:52.707Z,21.80
2018-04-24T15:23:21.031Z,21.40
2018-04-24T15:25:48.665Z,21.40
2018-04-24T15:28:16.309Z,21.50
2018-04-24T15:33:18.608Z,21.60
2018-04-24T15:35:46.167Z,21.50
2018-04-24T15:38:13.712Z,21.50
2018-04-24T15:40:42.080Z,21.60
2018-04-24T15:43:09.629Z,21.60
2018-04-24T15:45:37.241Z,21.90
2018-04-24T15:48:05.628Z,21.70
2018-04-24T15:50:33.112Z,21.60
2018-04-24T15:53:01.395Z,21.70
2018-04-24T15:55:29.727Z,21.60
2018-04-24T15:57:57.264Z,21.60
2018-04-24T16:00:25.585Z,21.60
2018-04-24T16:02:53.136Z,21.60
2018-04-24T16:05:20.693Z,21.70
2018-04-24T16:07:48.345Z,21.70
2018-04-24T16:10:15.912Z,21.70
2018-04-24T16:12:43.486Z,21.70
2018-04-24T16:15:11.070Z,21.80
2018-04-24T16:17:38.669Z,21.60
2018-04-24T16:20:06.252Z,21.30
2018-04-24T16:22:33.948Z,21.50
2018-04-24T16:25:01.505Z,21.40
2018-04-24T16:27:29.047Z,21.50
2018-04-24T16:29:57.438Z,21.50
2018-04-24T16:32:24.923Z,21.50
2018-04-24T16:34:53.242Z,21.30
2018-04-24T16:37:20.765Z,21.30
2018-04-24T16:39:49.082Z,21.50
2018-04-24T16:42:17.252Z,21.50
2018-04-24T16:44:45.613Z,21.40
2018-04-24T16:47:13.155Z,21.40
2018-04-24T16:49:40.746Z,21.40
2018-04-24T16:52:08.288Z,21.30
2018-04-24T16:54:35.896Z,21.20
2018-04-24T16:57:04.535Z,21.30
2018-04-24T16:59:32.135Z,21.20
2018-04-24T17:01:59.763Z,21.30
2018-04-24T17:04:28.123Z,21.20
2018-04-24T17:06:55.735Z,21.20
2018-04-24T17:09:24.106Z,21.00
2018-04-24T17:11:51.679Z,21.00
2018-04-24T17:14:19.232Z,21.00
2018-04-24T17:16:46.767Z,20.90
2018-04-24T17:19:14.332Z,21.00
2018-04-24T17:21:41.918Z,20.80
2018-04-24T17:24:09.489Z,20.70
2018-04-24T17:26:37.084Z,20.60
2018-04-24T17:29:04.628Z,20.60
2018-04-24T17:31:32.191Z,20.60
2018-04-24T17:33:59.761Z,20.50
2018-04-24T17:36:28.088Z,20.50
2018-04-24T17:38:55.682Z,20.40
2018-04-24T17:41:23.336Z,20.40
2018-04-24T17:43:50.893Z,20.40
2018-04-24T17:46:18.458Z,20.30
2018-04-24T17:48:46.064Z,20.30
2018-04-24T17:51:13.648Z,20.20
2018-04-24T17:53:41.307Z,20.20
2018-04-24T17:56:08.903Z,20.10
2018-04-24T17:58:36.656Z,20.00
2018-04-24T18:01:04.250Z,19.80
2018-04-24T18:03:32.833Z,19.70
2018-04-24T18:06:00.387Z,19.70
2018-04-24T18:08:28.001Z,19.70
2018-04-24T18:10:55.578Z,19.60
2018-04-24T18:13:23.151Z,19.50
2018-04-24T18:15:50.715Z,19.50
2018-04-24T18:18:18.287Z,19.50
2018-04-24T18:20:45.853Z,19.40
2018-04-24T18:23:14.234Z,19.30
2018-04-24T18:25:41.759Z,19.20
2018-04-24T18:28:10.112Z,19.20
2018-04-24T18:30:37.675Z,19.20
2018-04-24T18:33:08.790Z,19.10
2018-04-24T18:35:36.324Z,19.00
2018-04-24T18:38:03.893Z,19.00
2018-04-24T18:40:31.480Z,19.00
2018-04-24T18:42:59.823Z,18.90
2018-04-24T18:45:27.359Z,18.80
2018-04-24T18:47:55.714Z,18.80
2018-04-24T18:50:23.272Z,18.80
2018-04-24T18:52:50.977Z,18.70
2018-04-24T18:55:19.456Z,18.70
2018-04-24T18:57:47.020Z,18.70
2018-04-24T19:00:14.583Z,18.60
2018-04-24T19:02:42.153Z,18.60
2018-04-24T19:05:09.683Z,18.50
2018-04-24T19:07:37.985Z,18.50
2018-04-24T19:10:05.559Z,18.40
2018-04-24T19:12:33.093Z,18.40
2018-04-24T19:15:00.683Z,18.40
2018-04-24T19:17:28.983Z,18.30
2018-04-24T19:19:56.540Z,18.30
2018-04-24T19:22:24.828Z,18.10
2018-04-24T19:24:58.080Z,18.20
2018-04-24T19:27:33.210Z,18.00
2018-04-24T19:30:00.800Z,18.00
2018-04-24T19:32:31.343Z,18.00
2018-04-24T19:34:58.913Z,17.90
2018-04-24T19:37:26.450Z,17.90
2018-04-24T19:39:59.541Z,17.80
2018-04-24T19:42:27.059Z,17.80
2018-04-24T19:44:54.612Z,17.80
2018-04-24T19:47:22.146Z,17.80
2018-04-24T19:49:55.294Z,17.70
2018-04-24T19:52:22.818Z,17.70
2018-04-24T19:54:56.051Z,17.60
2018-04-24T19:57:24.338Z,17.60
2018-04-24T19:59:52.651Z,17.40
2018-04-24T20:02:20.168Z,17.40
2018-04-24T20:04:48.510Z,17.40
2018-04-24T20:07:16.023Z,17.30
2018-04-24T20:09:43.569Z,17.30
2018-04-24T20:12:11.082Z,17.30
2018-04-24T20:14:38.641Z,17.20
2018-04-24T20:17:07.149Z,17.10
2018-04-24T20:19:34.696Z,17.10
2018-04-24T20:22:03.512Z,17.10
2018-04-24T20:24:32.066Z,17.10
2018-04-24T20:26:59.647Z,17.10
2018-04-24T20:29:28.859Z,17.00
2018-04-24T20:31:56.367Z,17.00
2018-04-24T20:34:23.939Z,17.00
2018-04-24T20:36:51.488Z,17.00
2018-04-24T20:39:18.997Z,16.90
2018-04-24T20:41:46.555Z,16.80
2018-04-24T20:44:14.057Z,16.80
2018-04-24T20:46:42.414Z,16.80
2018-04-24T20:49:09.923Z,16.70
2018-04-24T20:51:37.467Z,16.80
2018-04-24T20:54:04.979Z,16.70
2018-04-24T20:56:32.508Z,16.70
2018-04-24T20:59:00.022Z,16.70
2018-04-24T21:01:27.686Z,16.70
2018-04-24T21:03:55.612Z,16.60
2018-04-24T21:06:23.948Z,16.60
2018-04-24T21:08:53.255Z,16.50
2018-04-24T21:11:21.584Z,16.50
2018-04-24T21:13:49.113Z,16.50
2018-04-24T21:16:16.645Z,16.40
2018-04-24T21:18:44.166Z,16.40
2018-04-24T21:21:12.467Z,16.40
2018-04-24T21:23:40.749Z,16.30
2018-04-24T21:26:09.050Z,16.30
2018-04-24T21:28:36.575Z,16.20
2018-04-24T21:31:04.900Z,16.20
2018-04-24T21:33:33.174Z,16.10
2018-04-24T21:36:00.711Z,16.10
2018-04-24T21:38:28.235Z,16.00
2018-04-24T21:40:56.701Z,16.00
2018-04-24T21:43:24.322Z,16.00
2018-04-24T21:45:51.894Z,15.90
2018-04-24T21:48:20.365Z,15.90
2018-04-24T21:50:48.638Z,15.70
2018-04-24T21:53:16.213Z,15.70
2018-04-24T21:55:43.719Z,15.70
2018-04-24T21:58:11.310Z,15.70
2018-04-24T22:00:38.874Z,15.60
2018-04-24T22:03:06.433Z,15.60
2018-04-24T22:05:33.940Z,15.50
2018-04-24T22:08:03.823Z,15.40
2018-04-24T22:10:31.367Z,15.40
2018-04-24T22:12:58.931Z,15.40
2018-04-24T22:15:26.746Z,15.30
2018-04-24T22:17:54.290Z,15.20
2018-04-24T22:20:21.855Z,15.30
2018-04-24T22:22:49.388Z,15.20
2018-04-24T22:25:17.456Z,15.20
2018-04-24T22:27:44.981Z,15.20
2018-04-24T22:30:12.495Z,15.10
2018-04-24T22:32:40.022Z,15.10
2018-04-24T22:35:07.545Z,15.10
2018-04-24T22:37:35.112Z,15.10
2018-04-24T22:40:02.628Z,15.00
2018-04-24T22:42:30.930Z,14.90
2018-04-24T22:44:58.454Z,14.90
2018-04-24T22:47:26.335Z,14.80
2018-04-24T22:49:53.847Z,14.70
2018-04-24T22:52:21.375Z,14.70
2018-04-24T22:54:48.928Z,14.70
2018-04-24T22:57:17.203Z,14.70
2018-04-24T22:59:44.786Z,14.70
2018-04-24T23:02:13.061Z,14.60
2018-04-24T23:04:40.601Z,14.60
2018-04-24T23:07:08.146Z,14.60
2018-04-24T23:09:35.706Z,14.50
2018-04-24T23:12:15.236Z,14.40
2018-04-24T23:14:55.426Z,14.40
2018-04-24T23:17:34.869Z,14.40
2018-04-24T23:20:15.019Z,14.30
2018-04-24T23:22:42.570Z,14.30
2018-04-24T23:25:11.041Z,14.30
2018-04-24T23:27:38.699Z,14.30
2018-04-24T23:30:06.258Z,14.30
2018-04-24T23:32:33.783Z,14.30
2018-04-24T23:35:01.329Z,14.30
2018-04-24T23:37:28.850Z,14.30
2018-04-24T23:39:57.160Z,14.30
2018-04-24T23:42:25.430Z,14.30
2018-04-24T23:44:52.961Z,14.30
2018-04-24T23:47:20.486Z,14.20
2018-04-24T23:49:48.783Z,14.30
2018-04-24T23:52:17.079Z,14.20
2018-04-24T23:54:44.605Z,14.20
2018-04-24T23:57:12.124Z,14.10
2018-04-24T23:59:39.657Z,14.10
